sensor_id;sensor_type;location;lat;lon;timestamp;temperature;humidity
13268;DHT22;6702;47.068;15.458;2024-02-26T00:02:42;3.20;92.20
13268;DHT22;6702;47.068;15.458;2024-02-26T00:05:58;3.20;92.20
13268;DHT22;6702;47.068;15.458;2024-02-26T00:09:10;3.10;92.20
13268;DHT22;6702;47.068;15.458;2024-02-26T00:12:30;3.10;92.20
13268;DHT22;6702;47.068;15.458;2024-02-26T00:15:40;3.10;92.40
13268;DHT22;6702;47.068;15.458;2024-02-26T00:18:50;3.10;92.50
13268;DHT22;6702;47.068;15.458;2024-02-26T00:22:13;3.00;92.50
13268;DHT22;6702;47.068;15.458;2024-02-26T00:25:21;3.00;92.50
13268;DHT22;6702;47.068;15.458;2024-02-26T00:28:26;3.00;92.60
13268;DHT22;6702;47.068;15.458;2024-02-26T00:31:37;3.00;92.70
13268;DHT22;6702;47.068;15.458;2024-02-26T00:34:59;3.00;92.80
13268;DHT22;6702;47.068;15.458;2024-02-26T00:38:13;3.00;92.90
13268;DHT22;6702;47.068;15.458;2024-02-26T00:41:22;3.00;92.90
13268;DHT22;6702;47.068;15.458;2024-02-26T00:44:35;2.90;94.30
13268;DHT22;6702;47.068;15.458;2024-02-26T00:47:45;2.90;95.10
13268;DHT22;6702;47.068;15.458;2024-02-26T00:51:03;2.90;95.40
13268;DHT22;6702;47.068;15.458;2024-02-26T00:54:19;3.00;95.30
13268;DHT22;6702;47.068;15.458;2024-02-26T00:57:25;3.00;95.10
13268;DHT22;6702;47.068;15.458;2024-02-26T01:00:30;3.00;94.70
13268;DHT22;6702;47.068;15.458;2024-02-26T01:03:42;3.00;94.40
13268;DHT22;6702;47.068;15.458;2024-02-26T01:06:49;2.90;94.10
13268;DHT22;6702;47.068;15.458;2024-02-26T01:10:06;2.90;94.00
13268;DHT22;6702;47.068;15.458;2024-02-26T01:13:11;2.90;93.70
13268;DHT22;6702;47.068;15.458;2024-02-26T01:16:19;2.80;93.60
13268;DHT22;6702;47.068;15.458;2024-02-26T01:19:41;2.80;93.60
13268;DHT22;6702;47.068;15.458;2024-02-26T01:22:53;2.80;93.60
13268;DHT22;6702;47.068;15.458;2024-02-26T01:26:09;2.70;93.50
13268;DHT22;6702;47.068;15.458;2024-02-26T01:29:24;2.70;93.50
13268;DHT22;6702;47.068;15.458;2024-02-26T01:32:30;2.70;93.50
13268;DHT22;6702;47.068;15.458;2024-02-26T01:35:48;2.70;93.50
13268;DHT22;6702;47.068;15.458;2024-02-26T01:39:06;2.60;93.50
13268;DHT22;6702;47.068;15.458;2024-02-26T01:42:32;2.60;93.50
13268;DHT22;6702;47.068;15.458;2024-02-26T01:45:41;2.60;93.60
13268;DHT22;6702;47.068;15.458;2024-02-26T01:48:51;2.60;93.70
13268;DHT22;6702;47.068;15.458;2024-02-26T01:51:59;2.50;93.70
13268;DHT22;6702;47.068;15.458;2024-02-26T01:55:09;2.50;93.80
13268;DHT22;6702;47.068;15.458;2024-02-26T01:58:20;2.50;93.80
13268;DHT22;6702;47.068;15.458;2024-02-26T02:01:30;2.50;93.80
13268;DHT22;6702;47.068;15.458;2024-02-26T02:04:38;2.40;93.70
13268;DHT22;6702;47.068;15.458;2024-02-26T02:07:50;2.40;93.70
13268;DHT22;6702;47.068;15.458;2024-02-26T02:11:09;2.40;93.70
13268;DHT22;6702;47.068;15.458;2024-02-26T02:14:24;2.30;93.70
13268;DHT22;6702;47.068;15.458;2024-02-26T02:17:35;2.30;93.80
13268;DHT22;6702;47.068;15.458;2024-02-26T02:20:47;2.30;93.90
13268;DHT22;6702;47.068;15.458;2024-02-26T02:24:07;2.30;94.00
13268;DHT22;6702;47.068;15.458;2024-02-26T02:27:17;2.30;94.00
13268;DHT22;6702;47.068;15.458;2024-02-26T02:30:25;2.30;94.10
13268;DHT22;6702;47.068;15.458;2024-02-26T02:33:37;2.30;94.20
13268;DHT22;6702;47.068;15.458;2024-02-26T02:36:54;2.30;94.40
13268;DHT22;6702;47.068;15.458;2024-02-26T02:39:59;2.30;94.40
13268;DHT22;6702;47.068;15.458;2024-02-26T02:43:10;2.30;94.30
13268;DHT22;6702;47.068;15.458;2024-02-26T02:46:30;2.30;94.20
13268;DHT22;6702;47.068;15.458;2024-02-26T02:49:36;2.20;94.10
13268;DHT22;6702;47.068;15.458;2024-02-26T02:52:51;2.20;94.10
13268;DHT22;6702;47.068;15.458;2024-02-26T02:56:02;2.20;94.10
13268;DHT22;6702;47.068;15.458;2024-02-26T02:59:18;2.20;94.20
13268;DHT22;6702;47.068;15.458;2024-02-26T03:02:28;2.10;94.10
13268;DHT22;6702;47.068;15.458;2024-02-26T03:05:43;2.10;94.20
13268;DHT22;6702;47.068;15.458;2024-02-26T03:08:56;2.10;94.50
13268;DHT22;6702;47.068;15.458;2024-02-26T03:12:06;2.20;95.10
13268;DHT22;6702;47.068;15.458;2024-02-26T03:15:21;2.20;95.80
13268;DHT22;6702;47.068;15.458;2024-02-26T03:18:28;2.20;96.40
13268;DHT22;6702;47.068;15.458;2024-02-26T03:21:47;2.10;96.10
13268;DHT22;6702;47.068;15.458;2024-02-26T03:25:07;2.10;96.00
13268;DHT22;6702;47.068;15.458;2024-02-26T03:28:13;2.10;96.40
13268;DHT22;6702;47.068;15.458;2024-02-26T03:31:22;2.20;96.40
13268;DHT22;6702;47.068;15.458;2024-02-26T03:34:28;2.10;96.30
13268;DHT22;6702;47.068;15.458;2024-02-26T03:37:50;2.10;96.30
13268;DHT22;6702;47.068;15.458;2024-02-26T03:41:00;2.10;95.90
13268;DHT22;6702;47.068;15.458;2024-02-26T03:44:17;2.00;95.50
13268;DHT22;6702;47.068;15.458;2024-02-26T03:47:31;2.00;95.20
13268;DHT22;6702;47.068;15.458;2024-02-26T03:50:48;1.90;95.00
13268;DHT22;6702;47.068;15.458;2024-02-26T03:54:00;1.90;94.90
13268;DHT22;6702;47.068;15.458;2024-02-26T03:57:20;1.90;95.00
13268;DHT22;6702;47.068;15.458;2024-02-26T04:00:30;1.90;95.00
13268;DHT22;6702;47.068;15.458;2024-02-26T04:03:37;1.90;96.20
13268;DHT22;6702;47.068;15.458;2024-02-26T04:06:45;1.90;97.10
13268;DHT22;6702;47.068;15.458;2024-02-26T04:09:52;1.90;97.50
13268;DHT22;6702;47.068;15.458;2024-02-26T04:13:11;1.90;97.20
13268;DHT22;6702;47.068;15.458;2024-02-26T04:16:18;2.00;97.00
13268;DHT22;6702;47.068;15.458;2024-02-26T04:19:24;2.00;96.70
13268;DHT22;6702;47.068;15.458;2024-02-26T04:22:43;1.90;96.30
13268;DHT22;6702;47.068;15.458;2024-02-26T04:25:53;1.90;96.10
13268;DHT22;6702;47.068;15.458;2024-02-26T04:29:05;1.90;95.90
13268;DHT22;6702;47.068;15.458;2024-02-26T04:32:12;1.80;95.70
13268;DHT22;6702;47.068;15.458;2024-02-26T04:35:28;1.80;95.60
13268;DHT22;6702;47.068;15.458;2024-02-26T04:38:41;1.80;95.60
13268;DHT22;6702;47.068;15.458;2024-02-26T04:41:54;1.80;95.60
13268;DHT22;6702;47.068;15.458;2024-02-26T04:45:15;1.80;95.60
13268;DHT22;6702;47.068;15.458;2024-02-26T04:48:24;1.70;95.40
13268;DHT22;6702;47.068;15.458;2024-02-26T04:51:36;1.70;95.30
13268;DHT22;6702;47.068;15.458;2024-02-26T04:54:44;1.70;95.40
13268;DHT22;6702;47.068;15.458;2024-02-26T04:58:00;1.60;95.40
13268;DHT22;6702;47.068;15.458;2024-02-26T05:01:13;1.60;95.40
13268;DHT22;6702;47.068;15.458;2024-02-26T05:04:24;1.60;95.90
13268;DHT22;6702;47.068;15.458;2024-02-26T05:07:39;1.40;95.90
13268;DHT22;6702;47.068;15.458;2024-02-26T05:10:48;1.40;96.50
13268;DHT22;6702;47.068;15.458;2024-02-26T05:14:07;1.40;96.80
13268;DHT22;6702;47.068;15.458;2024-02-26T05:17:24;1.40;96.70
13268;DHT22;6702;47.068;15.458;2024-02-26T05:20:31;1.40;96.70
13268;DHT22;6702;47.068;15.458;2024-02-26T05:23:41;1.40;96.60
13268;DHT22;6702;47.068;15.458;2024-02-26T05:26:49;1.40;96.70
13268;DHT22;6702;47.068;15.458;2024-02-26T05:29:55;1.40;96.80
13268;DHT22;6702;47.068;15.458;2024-02-26T05:33:04;1.50;96.80
13268;DHT22;6702;47.068;15.458;2024-02-26T05:36:10;1.50;96.60
13268;DHT22;6702;47.068;15.458;2024-02-26T05:39:28;1.50;96.70
13268;DHT22;6702;47.068;15.458;2024-02-26T05:42:34;1.50;97.10
13268;DHT22;6702;47.068;15.458;2024-02-26T05:45:47;1.60;97.20
13268;DHT22;6702;47.068;15.458;2024-02-26T05:49:19;1.60;97.70
13268;DHT22;6702;47.068;15.458;2024-02-26T05:52:28;1.80;98.10
13268;DHT22;6702;47.068;15.458;2024-02-26T05:55:37;1.80;98.20
13268;DHT22;6702;47.068;15.458;2024-02-26T05:58:49;1.90;98.30
13268;DHT22;6702;47.068;15.458;2024-02-26T06:01:56;2.10;98.40
13268;DHT22;6702;47.068;15.458;2024-02-26T06:05:05;2.30;98.70
13268;DHT22;6702;47.068;15.458;2024-02-26T06:08:11;3.00;99.90
13268;DHT22;6702;47.068;15.458;2024-02-26T06:11:16;3.40;99.90
13268;DHT22;6702;47.068;15.458;2024-02-26T06:14:28;4.00;99.90
13268;DHT22;6702;47.068;15.458;2024-02-26T06:17:42;5.80;99.60
13268;DHT22;6702;47.068;15.458;2024-02-26T06:20:50;8.00;93.50
13268;DHT22;6702;47.068;15.458;2024-02-26T06:23:57;9.90;88.30
13268;DHT22;6702;47.068;15.458;2024-02-26T06:27:02;11.60;78.30
13268;DHT22;6702;47.068;15.458;2024-02-26T06:30:09;12.90;71.70
13268;DHT22;6702;47.068;15.458;2024-02-26T06:33:17;14.00;66.60
13268;DHT22;6702;47.068;15.458;2024-02-26T06:36:32;14.80;62.50
13268;DHT22;6702;47.068;15.458;2024-02-26T06:39:42;15.40;58.20
13268;DHT22;6702;47.068;15.458;2024-02-26T06:42:57;15.70;55.40
13268;DHT22;6702;47.068;15.458;2024-02-26T06:46:13;15.90;54.90
13268;DHT22;6702;47.068;15.458;2024-02-26T06:49:22;15.80;53.80
13268;DHT22;6702;47.068;15.458;2024-02-26T06:52:36;15.80;53.20
13268;DHT22;6702;47.068;15.458;2024-02-26T06:55:44;15.60;52.60
13268;DHT22;6702;47.068;15.458;2024-02-26T06:58:50;15.50;52.70
13268;DHT22;6702;47.068;15.458;2024-02-26T07:02:03;15.50;52.40
13268;DHT22;6702;47.068;15.458;2024-02-26T07:05:13;15.70;52.20
13268;DHT22;6702;47.068;15.458;2024-02-26T07:08:24;16.20;51.80
13268;DHT22;6702;47.068;15.458;2024-02-26T07:11:32;16.90;50.90
13268;DHT22;6702;47.068;15.458;2024-02-26T07:14:40;17.80;49.50
13268;DHT22;6702;47.068;15.458;2024-02-26T07:18:00;19.10;47.90
13268;DHT22;6702;47.068;15.458;2024-02-26T07:21:09;20.40;45.20
13268;DHT22;6702;47.068;15.458;2024-02-26T07:24:30;21.10;43.70
13268;DHT22;6702;47.068;15.458;2024-02-26T07:27:42;22.20;42.20
13268;DHT22;6702;47.068;15.458;2024-02-26T07:31:03;23.00;40.80
13268;DHT22;6702;47.068;15.458;2024-02-26T07:34:20;24.00;39.40
13268;DHT22;6702;47.068;15.458;2024-02-26T07:37:29;25.30;37.90
13268;DHT22;6702;47.068;15.458;2024-02-26T07:40:34;26.10;36.20
13268;DHT22;6702;47.068;15.458;2024-02-26T07:43:45;26.70;34.80
13268;DHT22;6702;47.068;15.458;2024-02-26T07:46:48;27.20;33.70
13268;DHT22;6702;47.068;15.458;2024-02-26T07:49:51;27.80;33.10
13268;DHT22;6702;47.068;15.458;2024-02-26T07:52:55;28.40;32.10
13268;DHT22;6702;47.068;15.458;2024-02-26T07:55:59;29.00;31.30
13268;DHT22;6702;47.068;15.458;2024-02-26T07:59:02;29.80;30.10
13268;DHT22;6702;47.068;15.458;2024-02-26T08:02:05;30.20;29.70
13268;DHT22;6702;47.068;15.458;2024-02-26T08:05:09;30.70;29.10
13268;DHT22;6702;47.068;15.458;2024-02-26T08:08:12;31.00;28.70
13268;DHT22;6702;47.068;15.458;2024-02-26T08:11:17;30.90;28.40
13268;DHT22;6702;47.068;15.458;2024-02-26T08:14:20;31.00;28.20
13268;DHT22;6702;47.068;15.458;2024-02-26T08:17:24;31.20;27.70
13268;DHT22;6702;47.068;15.458;2024-02-26T08:20:27;31.60;27.70
13268;DHT22;6702;47.068;15.458;2024-02-26T08:23:30;31.90;27.00
13268;DHT22;6702;47.068;15.458;2024-02-26T08:26:35;30.90;27.30
13268;DHT22;6702;47.068;15.458;2024-02-26T08:29:38;30.90;27.40
13268;DHT22;6702;47.068;15.458;2024-02-26T08:32:41;31.10;27.30
13268;DHT22;6702;47.068;15.458;2024-02-26T08:35:45;31.20;26.80
13268;DHT22;6702;47.068;15.458;2024-02-26T08:38:53;31.20;26.80
13268;DHT22;6702;47.068;15.458;2024-02-26T08:42:04;30.80;26.80
13268;DHT22;6702;47.068;15.458;2024-02-26T08:45:15;30.60;26.70
13268;DHT22;6702;47.068;15.458;2024-02-26T08:48:19;30.60;27.10
13268;DHT22;6702;47.068;15.458;2024-02-26T08:51:28;31.00;26.60
13268;DHT22;6702;47.068;15.458;2024-02-26T08:54:38;31.40;26.50
13268;DHT22;6702;47.068;15.458;2024-02-26T08:58:04;31.00;26.90
13268;DHT22;6702;47.068;15.458;2024-02-26T09:01:09;30.60;26.80
13268;DHT22;6702;47.068;15.458;2024-02-26T09:04:22;29.60;27.90
13268;DHT22;6702;47.068;15.458;2024-02-26T09:07:39;28.80;28.00
13268;DHT22;6702;47.068;15.458;2024-02-26T09:10:46;28.60;28.60
13268;DHT22;6702;47.068;15.458;2024-02-26T09:14:02;29.40;28.20
13268;DHT22;6702;47.068;15.458;2024-02-26T09:17:11;30.10;27.20
13268;DHT22;6702;47.068;15.458;2024-02-26T09:20:32;30.70;26.90
13268;DHT22;6702;47.068;15.458;2024-02-26T09:23:43;31.00;26.20
13268;DHT22;6702;47.068;15.458;2024-02-26T09:26:47;30.30;26.30
13268;DHT22;6702;47.068;15.458;2024-02-26T09:29:59;30.20;26.50
13268;DHT22;6702;47.068;15.458;2024-02-26T09:33:08;29.00;27.30
13268;DHT22;6702;47.068;15.458;2024-02-26T09:36:14;28.10;28.60
13268;DHT22;6702;47.068;15.458;2024-02-26T09:39:27;28.00;28.40
13268;DHT22;6702;47.068;15.458;2024-02-26T09:42:43;28.10;28.60
13268;DHT22;6702;47.068;15.458;2024-02-26T09:45:58;27.60;28.40
13268;DHT22;6702;47.068;15.458;2024-02-26T09:49:08;26.10;29.30
13268;DHT22;6702;47.068;15.458;2024-02-26T09:52:22;26.10;30.00
13268;DHT22;6702;47.068;15.458;2024-02-26T09:55:30;26.80;29.60
13268;DHT22;6702;47.068;15.458;2024-02-26T09:58:39;25.80;30.20
13268;DHT22;6702;47.068;15.458;2024-02-26T10:02:04;25.60;31.40
13268;DHT22;6702;47.068;15.458;2024-02-26T10:05:20;27.30;30.00
13268;DHT22;6702;47.068;15.458;2024-02-26T10:08:28;30.50;28.00
13268;DHT22;6702;47.068;15.458;2024-02-26T10:11:46;32.50;26.30
13268;DHT22;6702;47.068;15.458;2024-02-26T10:14:52;33.80;25.00
13268;DHT22;6702;47.068;15.458;2024-02-26T10:18:12;35.20;23.60
13268;DHT22;6702;47.068;15.458;2024-02-26T10:21:29;36.60;22.20
13268;DHT22;6702;47.068;15.458;2024-02-26T10:24:50;37.00;21.60
13268;DHT22;6702;47.068;15.458;2024-02-26T10:28:01;37.00;21.20
13268;DHT22;6702;47.068;15.458;2024-02-26T10:31:16;36.30;21.10
13268;DHT22;6702;47.068;15.458;2024-02-26T10:34:38;35.80;20.90
13268;DHT22;6702;47.068;15.458;2024-02-26T10:37:51;35.30;21.20
13268;DHT22;6702;47.068;15.458;2024-02-26T10:40:56;33.30;22.50
13268;DHT22;6702;47.068;15.458;2024-02-26T10:44:12;31.30;23.40
13268;DHT22;6702;47.068;15.458;2024-02-26T10:47:22;31.10;24.50
13268;DHT22;6702;47.068;15.458;2024-02-26T10:50:35;32.10;23.60
13268;DHT22;6702;47.068;15.458;2024-02-26T10:53:47;32.40;23.30
13268;DHT22;6702;47.068;15.458;2024-02-26T10:57:00;30.80;23.60
13268;DHT22;6702;47.068;15.458;2024-02-26T11:00:18;31.60;23.10
13268;DHT22;6702;47.068;15.458;2024-02-26T11:03:32;33.00;22.50
13268;DHT22;6702;47.068;15.458;2024-02-26T11:06:40;32.00;22.40
13268;DHT22;6702;47.068;15.458;2024-02-26T11:09:46;31.00;23.00
13268;DHT22;6702;47.068;15.458;2024-02-26T11:13:01;29.10;24.30
13268;DHT22;6702;47.068;15.458;2024-02-26T11:16:07;27.90;25.50
13268;DHT22;6702;47.068;15.458;2024-02-26T11:19:13;27.60;25.90
13268;DHT22;6702;47.068;15.458;2024-02-26T11:22:39;27.20;26.00
13268;DHT22;6702;47.068;15.458;2024-02-26T11:25:46;25.80;27.20
13268;DHT22;6702;47.068;15.458;2024-02-26T11:29:01;24.00;29.00
13268;DHT22;6702;47.068;15.458;2024-02-26T11:32:14;23.00;30.70
13268;DHT22;6702;47.068;15.458;2024-02-26T11:35:34;22.60;31.30
13268;DHT22;6702;47.068;15.458;2024-02-26T11:38:42;22.90;31.60
13268;DHT22;6702;47.068;15.458;2024-02-26T11:41:53;23.00;31.70
13268;DHT22;6702;47.068;15.458;2024-02-26T11:44:58;23.00;31.90
13268;DHT22;6702;47.068;15.458;2024-02-26T11:48:16;22.80;32.10
13268;DHT22;6702;47.068;15.458;2024-02-26T11:51:32;21.50;33.30
13268;DHT22;6702;47.068;15.458;2024-02-26T11:54:45;20.40;35.50
13268;DHT22;6702;47.068;15.458;2024-02-26T11:57:55;21.60;34.80
13268;DHT22;6702;47.068;15.458;2024-02-26T12:04:56;21.70;33.80
13268;DHT22;6702;47.068;15.458;2024-02-26T12:08:09;21.00;34.90
13268;DHT22;6702;47.068;15.458;2024-02-26T12:11:28;20.70;35.50
13268;DHT22;6702;47.068;15.458;2024-02-26T12:14:52;20.60;35.50
13268;DHT22;6702;47.068;15.458;2024-02-26T12:18:01;19.90;36.60
13268;DHT22;6702;47.068;15.458;2024-02-26T12:21:21;19.40;37.40
13268;DHT22;6702;47.068;15.458;2024-02-26T12:24:28;19.20;37.50
13268;DHT22;6702;47.068;15.458;2024-02-26T12:27:47;19.00;38.40
13268;DHT22;6702;47.068;15.458;2024-02-26T12:30:56;18.70;39.00
13268;DHT22;6702;47.068;15.458;2024-02-26T12:34:08;18.80;38.80
13268;DHT22;6702;47.068;15.458;2024-02-26T12:37:24;18.80;38.60
13268;DHT22;6702;47.068;15.458;2024-02-26T12:40:38;19.00;38.40
13268;DHT22;6702;47.068;15.458;2024-02-26T12:43:59;19.10;38.60
13268;DHT22;6702;47.068;15.458;2024-02-26T12:47:07;19.30;38.60
13268;DHT22;6702;47.068;15.458;2024-02-26T12:50:25;20.00;38.30
13268;DHT22;6702;47.068;15.458;2024-02-26T12:53:35;21.40;36.80
13268;DHT22;6702;47.068;15.458;2024-02-26T12:56:44;22.10;35.30
13268;DHT22;6702;47.068;15.458;2024-02-26T12:59:57;22.60;34.70
13268;DHT22;6702;47.068;15.458;2024-02-26T13:03:04;22.90;33.70
13268;DHT22;6702;47.068;15.458;2024-02-26T13:06:17;23.20;32.90
13268;DHT22;6702;47.068;15.458;2024-02-26T13:09:33;23.10;32.50
13268;DHT22;6702;47.068;15.458;2024-02-26T13:12:48;23.00;32.80
13268;DHT22;6702;47.068;15.458;2024-02-26T13:16:09;22.30;33.70
13268;DHT22;6702;47.068;15.458;2024-02-26T13:19:18;21.70;34.10
13268;DHT22;6702;47.068;15.458;2024-02-26T13:22:40;21.30;35.00
13268;DHT22;6702;47.068;15.458;2024-02-26T13:25:49;20.60;35.20
13268;DHT22;6702;47.068;15.458;2024-02-26T13:29:09;19.90;35.80
13268;DHT22;6702;47.068;15.458;2024-02-26T13:32:40;19.60;36.30
13268;DHT22;6702;47.068;15.458;2024-02-26T13:35:49;19.30;37.20
13268;DHT22;6702;47.068;15.458;2024-02-26T13:38:56;19.00;36.90
13268;DHT22;6702;47.068;15.458;2024-02-26T13:42:04;18.50;37.80
13268;DHT22;6702;47.068;15.458;2024-02-26T13:45:14;17.90;39.10
13268;DHT22;6702;47.068;15.458;2024-02-26T13:48:33;17.20;40.50
13268;DHT22;6702;47.068;15.458;2024-02-26T13:51:41;17.00;41.20
13268;DHT22;6702;47.068;15.458;2024-02-26T13:54:55;16.90;41.10
13268;DHT22;6702;47.068;15.458;2024-02-26T13:58:03;16.40;41.70
13268;DHT22;6702;47.068;15.458;2024-02-26T14:01:14;16.10;42.30
13268;DHT22;6702;47.068;15.458;2024-02-26T14:04:43;16.00;42.90
13268;DHT22;6702;47.068;15.458;2024-02-26T14:08:00;15.90;42.70
13268;DHT22;6702;47.068;15.458;2024-02-26T14:11:09;15.60;43.00
13268;DHT22;6702;47.068;15.458;2024-02-26T14:14:30;15.50;43.10
13268;DHT22;6702;47.068;15.458;2024-02-26T14:17:42;15.40;43.50
13268;DHT22;6702;47.068;15.458;2024-02-26T14:21:01;15.30;43.00
13268;DHT22;6702;47.068;15.458;2024-02-26T14:24:08;15.40;42.80
13268;DHT22;6702;47.068;15.458;2024-02-26T14:27:21;15.40;42.20
13268;DHT22;6702;47.068;15.458;2024-02-26T14:30:36;15.50;41.70
13268;DHT22;6702;47.068;15.458;2024-02-26T14:33:45;15.60;41.50
13268;DHT22;6702;47.068;15.458;2024-02-26T14:52:25;14.10;44.70
13268;DHT22;6702;47.068;15.458;2024-02-26T14:55:34;13.70;45.90
13268;DHT22;6702;47.068;15.458;2024-02-26T14:58:40;13.60;45.90
13268;DHT22;6702;47.068;15.458;2024-02-26T15:01:46;13.50;46.10
13268;DHT22;6702;47.068;15.458;2024-02-26T15:05:01;13.40;46.20
13268;DHT22;6702;47.068;15.458;2024-02-26T15:08:21;13.30;46.70
13268;DHT22;6702;47.068;15.458;2024-02-26T15:11:26;13.10;47.10
13268;DHT22;6702;47.068;15.458;2024-02-26T15:14:42;13.10;47.40
13268;DHT22;6702;47.068;15.458;2024-02-26T15:17:56;12.90;47.90
13268;DHT22;6702;47.068;15.458;2024-02-26T15:21:14;12.80;48.10
13268;DHT22;6702;47.068;15.458;2024-02-26T15:24:25;12.80;48.10
13268;DHT22;6702;47.068;15.458;2024-02-26T15:27:37;12.80;48.30
13268;DHT22;6702;47.068;15.458;2024-02-26T15:30:49;12.90;48.20
13268;DHT22;6702;47.068;15.458;2024-02-26T15:33:58;12.90;48.50
13268;DHT22;6702;47.068;15.458;2024-02-26T15:37:10;12.90;48.90
13268;DHT22;6702;47.068;15.458;2024-02-26T15:40:24;12.80;49.00
13268;DHT22;6702;47.068;15.458;2024-02-26T15:43:31;12.50;49.50
13268;DHT22;6702;47.068;15.458;2024-02-26T15:46:40;12.40;49.50
13268;DHT22;6702;47.068;15.458;2024-02-26T15:49:49;12.30;49.70
13268;DHT22;6702;47.068;15.458;2024-02-26T15:53:01;12.20;50.00
13268;DHT22;6702;47.068;15.458;2024-02-26T15:56:20;12.20;50.30
13268;DHT22;6702;47.068;15.458;2024-02-26T15:59:29;12.10;50.40
13268;DHT22;6702;47.068;15.458;2024-02-26T16:02:42;12.00;50.80
13268;DHT22;6702;47.068;15.458;2024-02-26T16:05:56;11.90;50.90
13268;DHT22;6702;47.068;15.458;2024-02-26T16:09:08;11.90;51.40
13268;DHT22;6702;47.068;15.458;2024-02-26T16:12:35;11.80;51.40
13268;DHT22;6702;47.068;15.458;2024-02-26T16:16:01;11.70;51.80
13268;DHT22;6702;47.068;15.458;2024-02-26T16:19:13;11.50;52.20
13268;DHT22;6702;47.068;15.458;2024-02-26T16:22:22;11.50;52.80
13268;DHT22;6702;47.068;15.458;2024-02-26T16:25:32;11.40;53.20
13268;DHT22;6702;47.068;15.458;2024-02-26T16:28:50;11.30;53.50
13268;DHT22;6702;47.068;15.458;2024-02-26T16:32:00;11.20;53.70
13268;DHT22;6702;47.068;15.458;2024-02-26T16:35:17;11.30;53.80
13268;DHT22;6702;47.068;15.458;2024-02-26T16:38:28;11.30;54.00
13268;DHT22;6702;47.068;15.458;2024-02-26T16:41:38;11.20;54.10
13268;DHT22;6702;47.068;15.458;2024-02-26T16:44:59;11.30;54.20
13268;DHT22;6702;47.068;15.458;2024-02-26T16:48:10;11.30;54.20
13268;DHT22;6702;47.068;15.458;2024-02-26T16:51:16;11.40;54.30
13268;DHT22;6702;47.068;15.458;2024-02-26T16:54:23;11.40;54.30
13268;DHT22;6702;47.068;15.458;2024-02-26T16:57:30;11.40;54.40
13268;DHT22;6702;47.068;15.458;2024-02-26T17:00:46;11.40;54.70
13268;DHT22;6702;47.068;15.458;2024-02-26T17:03:55;11.40;54.80
13268;DHT22;6702;47.068;15.458;2024-02-26T17:06:59;11.30;55.10
13268;DHT22;6702;47.068;15.458;2024-02-26T17:10:05;11.30;55.40
13268;DHT22;6702;47.068;15.458;2024-02-26T17:13:10;11.30;55.50
13268;DHT22;6702;47.068;15.458;2024-02-26T17:16:18;11.30;55.50
13268;DHT22;6702;47.068;15.458;2024-02-26T17:19:25;11.30;55.60
13268;DHT22;6702;47.068;15.458;2024-02-26T17:22:33;11.20;55.90
13268;DHT22;6702;47.068;15.458;2024-02-26T17:25:41;11.10;56.40
13268;DHT22;6702;47.068;15.458;2024-02-26T17:28:46;11.10;56.70
13268;DHT22;6702;47.068;15.458;2024-02-26T17:32:01;11.00;56.80
13268;DHT22;6702;47.068;15.458;2024-02-26T17:35:11;11.00;57.10
13268;DHT22;6702;47.068;15.458;2024-02-26T17:38:17;11.00;57.10
13268;DHT22;6702;47.068;15.458;2024-02-26T17:41:21;11.00;57.10
13268;DHT22;6702;47.068;15.458;2024-02-26T17:44:33;11.10;57.30
13268;DHT22;6702;47.068;15.458;2024-02-26T17:47:46;11.00;57.40
13268;DHT22;6702;47.068;15.458;2024-02-26T17:50:55;11.00;57.40
13268;DHT22;6702;47.068;15.458;2024-02-26T17:54:14;11.00;57.50
13268;DHT22;6702;47.068;15.458;2024-02-26T17:57:21;10.90;57.90
13268;DHT22;6702;47.068;15.458;2024-02-26T18:00:37;10.90;58.00
13268;DHT22;6702;47.068;15.458;2024-02-26T18:03:51;10.90;57.90
13268;DHT22;6702;47.068;15.458;2024-02-26T18:07:00;10.90;57.80
13268;DHT22;6702;47.068;15.458;2024-02-26T18:10:11;10.90;57.90
13268;DHT22;6702;47.068;15.458;2024-02-26T18:13:20;10.90;58.00
13268;DHT22;6702;47.068;15.458;2024-02-26T18:16:34;10.80;58.30
13268;DHT22;6702;47.068;15.458;2024-02-26T18:19:59;10.80;58.70
13268;DHT22;6702;47.068;15.458;2024-02-26T18:23:08;10.70;58.90
13268;DHT22;6702;47.068;15.458;2024-02-26T18:26:24;10.70;59.10
13268;DHT22;6702;47.068;15.458;2024-02-26T18:29:32;10.70;59.40
13268;DHT22;6702;47.068;15.458;2024-02-26T18:32:52;10.60;59.80
13268;DHT22;6702;47.068;15.458;2024-02-26T18:36:18;10.50;60.10
13268;DHT22;6702;47.068;15.458;2024-02-26T18:39:45;10.50;60.60
13268;DHT22;6702;47.068;15.458;2024-02-26T18:42:56;10.50;61.10
13268;DHT22;6702;47.068;15.458;2024-02-26T18:46:05;10.50;61.70
13268;DHT22;6702;47.068;15.458;2024-02-26T18:49:22;10.40;61.10
13268;DHT22;6702;47.068;15.458;2024-02-26T18:53:00;10.30;61.50
13268;DHT22;6702;47.068;15.458;2024-02-26T18:56:17;10.20;61.70
13268;DHT22;6702;47.068;15.458;2024-02-26T18:59:27;10.10;61.80
13268;DHT22;6702;47.068;15.458;2024-02-26T19:02:58;10.00;62.10
13268;DHT22;6702;47.068;15.458;2024-02-26T19:06:17;10.00;62.10
13268;DHT22;6702;47.068;15.458;2024-02-26T19:09:36;10.00;62.30
13268;DHT22;6702;47.068;15.458;2024-02-26T19:12:46;10.00;63.10
13268;DHT22;6702;47.068;15.458;2024-02-26T19:16:18;10.10;64.10
13268;DHT22;6702;47.068;15.458;2024-02-26T19:19:30;10.10;64.60
13268;DHT22;6702;47.068;15.458;2024-02-26T19:22:50;10.20;64.90
13268;DHT22;6702;47.068;15.458;2024-02-26T19:26:05;10.30;65.40
13268;DHT22;6702;47.068;15.458;2024-02-26T19:29:24;10.30;65.80
13268;DHT22;6702;47.068;15.458;2024-02-26T19:32:38;10.30;66.20
13268;DHT22;6702;47.068;15.458;2024-02-26T19:35:46;10.30;66.40
13268;DHT22;6702;47.068;15.458;2024-02-26T19:39:11;10.30;66.60
13268;DHT22;6702;47.068;15.458;2024-02-26T19:42:30;10.20;66.80
13268;DHT22;6702;47.068;15.458;2024-02-26T19:45:44;10.20;67.00
13268;DHT22;6702;47.068;15.458;2024-02-26T19:48:54;10.20;67.10
13268;DHT22;6702;47.068;15.458;2024-02-26T19:52:15;10.20;67.50
13268;DHT22;6702;47.068;15.458;2024-02-26T19:55:40;10.10;67.40
13268;DHT22;6702;47.068;15.458;2024-02-26T19:59:09;10.00;67.60
13268;DHT22;6702;47.068;15.458;2024-02-26T20:02:30;9.80;68.30
13268;DHT22;6702;47.068;15.458;2024-02-26T20:05:48;9.60;68.80
13268;DHT22;6702;47.068;15.458;2024-02-26T20:09:08;9.50;69.10
13268;DHT22;6702;47.068;15.458;2024-02-26T20:12:22;9.40;69.70
13268;DHT22;6702;47.068;15.458;2024-02-26T20:15:40;9.10;71.80
13268;DHT22;6702;47.068;15.458;2024-02-26T20:19:06;8.90;74.20
13268;DHT22;6702;47.068;15.458;2024-02-26T20:22:18;8.70;74.30
13268;DHT22;6702;47.068;15.458;2024-02-26T20:25:36;8.60;74.90
13268;DHT22;6702;47.068;15.458;2024-02-26T20:28:45;8.60;75.70
13268;DHT22;6702;47.068;15.458;2024-02-26T20:32:08;8.50;75.00
13268;DHT22;6702;47.068;15.458;2024-02-26T20:35:20;8.40;75.00
13268;DHT22;6702;47.068;15.458;2024-02-26T20:38:37;8.30;76.30
13268;DHT22;6702;47.068;15.458;2024-02-26T20:41:47;8.20;76.70